Chillicothe, Iowa
Current Conditions -  °F | °C
As of 1:53 PM on Sunday 25 Jan 2015 (Local Time) from KOTM Reporting Station
Overcast Overcast  
Wind Chill: 19°   Ceiling: 1200
Heat Index: 30°   Visibility: 10mi
Dew Point: 27°   Wind: 16mph
Humidity: 88%   Direction: 20°NNE
Pressure: 29.88"   Gusts: 25mph
Location:  41.09°N, 92.53°W
Report Text: KOTM 251953Z AUTO 02014G22KT 10SM OVC012 M01/M03 A2988 RMK AO2 SLP124 T10111028
Loading
Personal Weather Stations






























Interactive Weather Map New forecast layout! Learn more

10-Day Weather Forecast

Advertisements
Track Severe Weather on mobile